Time;durP1;ratioP1;P1;durP2;ratioP2;P2;SDS_P1;SDS_P2;PMS_P1;PMS_P2;Temp;Humidity;BMP_temperature;BMP_pressure;BME280_temperature;BME280_humidity;BME280_pressure;Samples;Min_cycle;Max_cycle;Signal;HPM_P1;HPM_P2
2022/09/02 00:02:23;;;;;;;9.20;3.08;;;22.50;77.40;;;;;;4982540;28;20482;-88
2022/09/02 00:04:54;;;;;;;8.43;3.15;;;22.50;77.40;;;;;;4999181;28;20030;-88
2022/09/02 00:07:20;;;;;;;8.90;3.47;;;22.40;77.30;;;;;;4998024;28;20482;-88
2022/09/02 00:09:45;;;;;;;7.35;3.15;;;22.40;77.30;;;;;;4965525;28;20042;-88
2022/09/02 00:12:11;;;;;;;7.55;3.40;;;22.50;77.40;;;;;;4981688;28;20022;-88
2022/09/02 00:14:38;;;;;;;9.50;3.42;;;22.50;77.40;;;;;;4997382;28;20033;-87
2022/09/02 00:17:04;;;;;;;7.15;3.42;;;22.40;77.40;;;;;;4997645;28;20038;-88
2022/09/02 00:19:31;;;;;;;10.25;3.60;;;22.50;77.40;;;;;;4996928;28;20056;-88
2022/09/02 00:22:00;;;;;;;6.88;3.45;;;22.40;77.30;;;;;;4981422;28;20063;-88
2022/09/02 00:24:26;;;;;;;5.57;3.03;;;22.50;77.40;;;;;;4997407;28;20061;-88
2022/09/02 00:26:52;;;;;;;6.50;2.95;;;22.50;77.40;;;;;;5013474;28;20037;-88
2022/09/02 00:29:18;;;;;;;9.70;3.75;;;22.50;77.50;;;;;;4996973;28;20274;-88
2022/09/02 00:31:48;;;;;;;7.05;2.85;;;22.50;77.50;;;;;;4964952;28;20026;-87
2022/09/02 00:34:14;;;;;;;5.72;3.30;;;22.40;77.50;;;;;;4979503;28;20038;-87
2022/09/02 00:36:40;;;;;;;9.05;3.42;;;22.40;77.50;;;;;;4997382;28;20409;-87
2022/09/02 00:39:07;;;;;;;7.72;3.50;;;22.50;77.70;;;;;;4996549;28;20117;-87
2022/09/02 00:41:34;;;;;;;9.18;3.30;;;22.40;77.50;;;;;;4980731;28;20037;-87
2022/09/02 00:44:03;;;;;;;6.88;2.92;;;22.40;77.60;;;;;;4980559;28;20053;-87
2022/09/02 00:46:31;;;;;;;5.82;2.83;;;22.40;77.60;;;;;;4996558;28;20022;-87
2022/09/02 00:49:08;;;;;;;7.88;3.55;;;22.40;77.60;;;;;;4980065;28;20080;-87
2022/09/02 00:52:08;;;;;;;8.00;2.97;;;22.40;77.60;;;;;;4996852;28;20065;-87
2022/09/02 00:54:39;;;;;;;7.35;2.88;;;22.40;77.60;;;;;;4975519;28;20133;-88
2022/09/02 00:57:14;;;;;;;6.13;3.00;;;22.40;77.70;;;;;;5012808;28;20057;-88
2022/09/02 00:59:49;;;;;;;6.97;2.72;;;22.40;77.70;;;;;;4996337;28;20033;-88
2022/09/02 01:02:16;;;;;;;7.10;3.22;;;22.40;77.70;;;;;;4980467;28;20033;-88
2022/09/02 01:04:45;;;;;;;9.07;3.35;;;22.40;77.70;;;;;;4996394;28;20080;-88
2022/09/02 01:07:11;;;;;;;7.53;3.13;;;22.40;77.70;;;;;;4996693;28;20036;-87
2022/09/02 01:09:38;;;;;;;6.95;3.03;;;22.40;77.60;;;;;;4996011;28;20026;-87
2022/09/02 01:12:05;;;;;;;6.13;3.03;;;22.40;77.70;;;;;;5012533;28;20022;-87
2022/09/02 01:14:34;;;;;;;9.50;3.70;;;22.40;77.70;;;;;;4996163;28;20030;-88
2022/09/02 01:17:02;;;;;;;6.95;3.20;;;22.40;77.70;;;;;;5012412;28;20022;-88
2022/09/02 01:19:35;;;;;;;7.63;3.25;;;22.40;77.80;;;;;;4995851;28;20124;-87
2022/09/02 01:22:04;;;;;;;8.40;3.17;;;22.40;77.80;;;;;;4963730;28;20034;-87
2022/09/02 01:24:33;;;;;;;7.65;2.92;;;22.40;77.80;;;;;;4995943;28;20034;-87
2022/09/02 01:26:59;;;;;;;7.03;3.38;;;22.40;77.80;;;;;;4996243;28;20029;-87
2022/09/02 01:29:27;;;;;;;7.50;3.03;;;22.40;77.80;;;;;;5011913;28;20033;-87
2022/09/02 01:31:53;;;;;;;6.90;3.15;;;22.40;77.90;;;;;;5013322;28;20033;-87
2022/09/02 01:36:58;;;;;;;8.63;3.00;;;22.40;77.90;;;;;;5013259;28;20394;-80
2022/09/02 01:39:24;;;;;;;5.20;2.63;;;22.40;77.80;;;;;;5014056;28;20242;-80
2022/09/02 01:41:50;;;;;;;7.03;2.90;;;22.40;77.90;;;;;;5015080;28;20112;-80
2022/09/02 01:44:17;;;;;;;5.07;2.60;;;22.30;77.80;;;;;;5031191;28;20064;-80
2022/09/02 01:46:45;;;;;;;5.32;2.65;;;22.40;78.00;;;;;;4995540;28;20030;-80
2022/09/02 01:49:11;;;;;;;4.57;2.35;;;22.40;78.00;;;;;;5011460;28;20105;-80
2022/09/02 01:51:39;;;;;;;4.47;2.58;;;22.30;78.00;;;;;;5012952;28;20026;-80
2022/09/02 01:54:06;;;;;;;6.45;3.13;;;22.40;77.90;;;;;;4995343;28;20026;-80
2022/09/02 01:56:31;;;;;;;6.40;2.83;;;22.40;78.00;;;;;;5011517;28;20030;-80
2022/09/02 01:59:01;;;;;;;7.13;2.95;;;22.40;77.90;;;;;;4994903;28;20041;-80
2022/09/02 02:01:27;;;;;;;9.77;3.00;;;22.40;78.00;;;;;;4995281;28;20116;-80
2022/09/02 02:03:53;;;;;;;5.50;2.80;;;22.40;77.90;;;;;;4994981;28;20080;-80
2022/09/02 02:06:22;;;;;;;6.13;3.03;;;22.40;78.00;;;;;;4995199;28;20026;-80
2022/09/02 02:08:48;;;;;;;6.28;2.70;;;22.40;78.10;;;;;;5011084;28;20026;-80
2022/09/02 02:11:19;;;;;;;7.78;3.15;;;22.40;78.00;;;;;;5011470;28;20105;-80
2022/09/02 02:13:49;;;;;;;6.18;2.70;;;22.40;78.00;;;;;;4995147;28;20140;-80
2022/09/02 02:16:15;;;;;;;5.68;2.60;;;22.40;78.00;;;;;;5011071;28;20046;-80
2022/09/02 02:18:42;;;;;;;6.25;2.60;;;22.40;78.00;;;;;;5010856;28;20065;-80
2022/09/02 02:21:08;;;;;;;6.35;2.70;;;22.40;78.10;;;;;;5012558;28;20025;-80
2022/09/02 02:23:34;;;;;;;6.40;2.50;;;22.40;78.00;;;;;;5012291;28;20025;-81
2022/09/02 02:25:59;;;;;;;5.70;2.70;;;22.40;78.20;;;;;;4994514;28;20036;-80
2022/09/02 02:28:26;;;;;;;6.45;2.75;;;22.40;78.10;;;;;;4994634;28;20433;-80
2022/09/02 02:30:53;;;;;;;5.60;2.58;;;22.40;78.10;;;;;;5010967;28;20474;-80
2022/09/02 02:33:19;;;;;;;6.05;3.05;;;22.40;78.20;;;;;;4978493;28;20505;-80
2022/09/02 02:35:45;;;;;;;5.80;2.67;;;22.40;78.30;;;;;;5010770;28;20041;-80
2022/09/02 02:38:11;;;;;;;5.72;2.63;;;22.40;78.20;;;;;;5010873;28;20038;-80
2022/09/02 02:40:37;;;;;;;3.67;2.17;;;22.30;78.30;;;;;;5010657;28;20029;-80
2022/09/02 02:43:04;;;;;;;7.38;2.72;;;22.30;78.30;;;;;;4994664;28;20049;-80
2022/09/02 02:45:30;;;;;;;5.43;2.50;;;22.30;78.40;;;;;;4994309;28;20034;-80
2022/09/02 02:47:56;;;;;;;5.18;2.55;;;22.30;78.40;;;;;;5012053;28;20101;-80
2022/09/02 02:50:24;;;;;;;6.22;2.70;;;22.30;78.40;;;;;;5010610;28;20041;-80
2022/09/02 02:52:53;;;;;;;5.00;2.63;;;22.30;78.50;;;;;;5010945;28;20061;-80
2022/09/02 02:55:20;;;;;;;5.30;2.63;;;22.30;78.60;;;;;;5010714;28;20030;-80
2022/09/02 02:57:47;;;;;;;6.00;2.50;;;22.30;78.50;;;;;;4998107;28;20069;-81
2022/09/02 03:00:18;;;;;;;6.40;2.88;;;22.30;78.50;;;;;;5014431;28;20433;-80
2022/09/02 03:02:45;;;;;;;4.10;2.40;;;22.30;78.60;;;;;;4998570;28;20450;-80
2022/09/02 03:05:14;;;;;;;5.78;2.50;;;22.30;78.60;;;;;;5014794;28;20455;-80
2022/09/02 03:07:40;;;;;;;6.47;2.70;;;22.30;78.60;;;;;;4982201;28;20144;-80
2022/09/02 03:10:08;;;;;;;5.78;2.67;;;22.30;78.60;;;;;;4981955;28;20410;-80
2022/09/02 03:12:37;;;;;;;6.00;2.47;;;22.40;78.60;;;;;;4981990;28;20453;-80
2022/09/02 03:15:05;;;;;;;4.95;2.38;;;22.30;78.60;;;;;;4998123;28;20034;-80
2022/09/02 03:17:32;;;;;;;5.50;2.42;;;22.30;78.60;;;;;;4998591;28;20084;-80
2022/09/02 03:19:58;;;;;;;4.43;2.53;;;22.30;78.70;;;;;;4997968;28;20030;-80
2022/09/02 03:22:28;;;;;;;5.03;2.42;;;22.30;78.70;;;;;;4998249;28;20034;-80
2022/09/02 03:24:54;;;;;;;5.80;2.58;;;22.30;78.70;;;;;;5014110;28;20112;-80
2022/09/02 03:27:20;;;;;;;6.20;2.72;;;22.30;78.70;;;;;;4998018;28;20137;-80
2022/09/02 03:29:46;;;;;;;4.10;2.40;;;22.30;78.70;;;;;;5014001;28;20061;-81
2022/09/02 03:32:11;;;;;;;4.40;2.53;;;22.30;78.80;;;;;;5014260;28;20101;-80
2022/09/02 03:34:37;;;;;;;4.47;2.20;;;22.30;78.80;;;;;;5014200;28;20056;-83
2022/09/02 03:37:04;;;;;;;4.72;2.50;;;22.30;78.70;;;;;;4997803;28;20044;-81
2022/09/02 03:39:30;;;;;;;5.25;2.45;;;22.30;78.60;;;;;;4997585;28;20128;-81
2022/09/02 03:41:55;;;;;;;4.80;2.45;;;22.30;78.70;;;;;;4997607;28;20037;-80
2022/09/02 03:44:22;;;;;;;4.55;2.30;;;22.30;78.80;;;;;;4997677;28;20041;-82
2022/09/02 03:46:48;;;;;;;3.83;2.03;;;22.30;78.80;;;;;;5013985;28;20386;-82
2022/09/02 03:49:13;;;;;;;5.60;2.67;;;22.30;78.60;;;;;;4997228;28;20041;-82
2022/09/02 03:51:41;;;;;;;4.72;2.30;;;22.30;78.70;;;;;;4997650;28;20026;-82
2022/09/02 03:54:09;;;;;;;5.78;2.47;;;22.30;78.60;;;;;;4965617;28;20672;-82
2022/09/02 03:56:36;;;;;;;5.22;2.42;;;22.30;78.60;;;;;;4997494;28;20037;-82
2022/09/02 03:59:03;;;;;;;4.25;2.15;;;22.30;78.50;;;;;;5013414;28;20513;-82
2022/09/02 04:01:29;;;;;;;4.38;2.40;;;22.30;78.60;;;;;;5013623;28;20037;-82
2022/09/02 04:03:55;;;;;;;4.45;2.42;;;22.30;78.50;;;;;;5013475;28;20034;-81
2022/09/02 04:06:23;;;;;;;3.83;2.20;;;22.30;78.60;;;;;;5013541;28;20041;-82
2022/09/02 04:08:50;;;;;;;5.50;2.72;;;22.30;78.70;;;;;;4996908;28;20120;-82
2022/09/02 04:11:19;;;;;;;5.72;2.60;;;22.30;78.70;;;;;;5013485;28;20022;-83
2022/09/02 04:13:50;;;;;;;4.55;2.20;;;22.30;78.80;;;;;;5013506;28;20471;-82
2022/09/02 04:16:26;;;;;;;4.97;2.33;;;22.30;78.70;;;;;;4997203;28;20125;-83
2022/09/02 04:18:53;;;;;;;5.20;2.42;;;22.30;78.80;;;;;;5013100;28;20448;-80
2022/09/02 04:21:20;;;;;;;4.05;2.40;;;22.30;79.50;;;;;;5013241;28;20243;-81
2022/09/02 04:23:46;;;;;;;4.85;2.63;;;22.30;78.80;;;;;;5013268;28;20105;-81
2022/09/02 04:26:15;;;;;;;4.15;2.15;;;22.30;78.90;;;;;;4996914;28;20064;-79
2022/09/02 04:28:41;;;;;;;6.22;2.60;;;22.30;79.00;;;;;;5012938;28;20053;-79
2022/09/02 04:31:10;;;;;;;3.03;2.13;;;22.30;79.50;;;;;;4996976;28;20096;-81
2022/09/02 04:33:37;;;;;;;3.50;1.95;;;22.30;79.00;;;;;;4996878;28;20030;-83
2022/09/02 04:36:07;;;;;;;4.53;2.60;;;22.30;79.00;;;;;;4996781;28;20132;-79
2022/09/02 04:38:33;;;;;;;4.03;2.10;;;22.30;79.10;;;;;;4996553;28;20026;-81
2022/09/02 04:41:00;;;;;;;4.90;2.50;;;22.30;79.00;;;;;;4996461;28;20405;-81
2022/09/02 04:43:26;;;;;;;4.13;2.53;;;22.30;79.10;;;;;;4997028;28;20101;-80
2022/09/02 04:45:52;;;;;;;6.25;2.83;;;22.30;79.10;;;;;;5012726;28;20036;-80
2022/09/02 04:48:18;;;;;;;6.22;2.63;;;22.30;79.10;;;;;;5012592;28;20026;-81
2022/09/02 04:50:47;;;;;;;5.18;2.65;;;22.30;79.20;;;;;;4996318;28;20030;-81
2022/09/02 04:53:14;;;;;;;4.72;2.50;;;22.30;79.20;;;;;;5012679;28;20085;-79
2022/09/02 04:55:41;;;;;;;4.53;2.40;;;22.30;79.10;;;;;;5012605;28;20496;-80
2022/09/02 04:58:09;;;;;;;5.93;2.40;;;22.30;79.20;;;;;;4996457;28;20560;-80
2022/09/02 05:00:38;;;;;;;5.60;2.65;;;22.30;79.20;;;;;;4995978;28;20486;-82
2022/09/02 05:03:05;;;;;;;5.25;2.33;;;22.30;79.30;;;;;;4980322;28;20041;-81
2022/09/02 05:05:32;;;;;;;4.63;2.50;;;22.30;79.30;;;;;;4973602;28;20128;-81
2022/09/02 05:07:59;;;;;;;4.60;2.38;;;22.20;79.30;;;;;;5011557;28;20037;-80
2022/09/02 05:10:31;;;;;;;5.20;2.50;;;22.30;79.30;;;;;;5012627;28;20045;-80
2022/09/02 05:12:58;;;;;;;5.05;2.25;;;22.30;79.40;;;;;;4979604;28;20311;-80
2022/09/02 05:15:25;;;;;;;4.72;2.40;;;22.30;79.40;;;;;;4995575;28;20049;-80
2022/09/02 05:17:51;;;;;;;5.50;2.53;;;22.20;79.20;;;;;;4996015;28;20087;-80
2022/09/02 05:20:18;;;;;;;5.88;2.90;;;22.30;79.40;;;;;;4995188;28;20509;-80
2022/09/02 05:22:45;;;;;;;5.68;2.83;;;22.20;79.20;;;;;;5012075;28;20030;-80
2022/09/02 05:25:11;;;;;;;6.78;2.53;;;22.30;79.40;;;;;;5011924;28;20156;-80
2022/09/02 05:27:37;;;;;;;5.28;2.45;;;22.20;79.30;;;;;;5012031;28;20083;-79
2022/09/02 05:30:05;;;;;;;5.07;2.72;;;22.30;79.40;;;;;;5011787;28;20029;-80
2022/09/02 05:32:34;;;;;;;5.47;2.67;;;22.20;79.30;;;;;;4995714;28;20101;-79
2022/09/02 05:35:00;;;;;;;4.75;2.70;;;22.30;79.30;;;;;;4995640;28;20034;-80
2022/09/02 05:37:26;;;;;;;4.18;2.13;;;22.20;79.30;;;;;;5012727;28;20036;-80
2022/09/02 05:39:52;;;;;;;4.63;2.50;;;22.20;79.30;;;;;;4995121;28;20398;-80
2022/09/02 05:42:19;;;;;;;4.30;2.45;;;22.20;79.30;;;;;;5011584;28;20030;-80
2022/09/02 05:44:47;;;;;;;4.28;2.60;;;22.30;79.40;;;;;;5011637;28;20044;-80
2022/09/02 05:47:16;;;;;;;4.50;2.50;;;22.20;79.20;;;;;;4995341;28;20448;-81
2022/09/02 05:49:43;;;;;;;4.28;2.30;;;22.20;79.80;;;;;;5011425;28;20144;-79
2022/09/02 05:52:12;;;;;;;5.10;2.60;;;22.20;79.40;;;;;;5011512;28;20030;-78
2022/09/02 05:54:49;;;;;;;3.88;2.45;;;22.30;79.40;;;;;;5011475;28;20136;-79
2022/09/02 05:57:18;;;;;;;4.07;2.40;;;22.20;79.30;;;;;;5011517;28;20541;-79
2022/09/02 05:59:55;;;;;;;5.40;2.60;;;22.30;79.30;;;;;;5011407;28;20033;-79
2022/09/02 06:02:24;;;;;;;4.88;2.58;;;22.20;79.30;;;;;;4979182;28;20038;-78
2022/09/02 06:04:52;;;;;;;5.43;2.20;;;22.30;79.40;;;;;;4994943;28;20087;-78
2022/09/02 06:07:22;;;;;;;4.18;2.47;;;22.30;79.40;;;;;;4995167;28;20025;-79
2022/09/02 06:09:49;;;;;;;5.45;2.78;;;22.20;79.30;;;;;;4994695;28;20072;-78
2022/09/02 06:12:19;;;;;;;5.25;2.88;;;22.30;79.40;;;;;;4995322;28;20030;-78
2022/09/02 06:14:47;;;;;;;4.82;2.83;;;22.30;79.40;;;;;;5011498;28;20087;-78
2022/09/02 06:17:13;;;;;;;4.82;2.83;;;22.30;79.40;;;;;;5011476;28;20394;-79
2022/09/02 06:19:46;;;;;;;4.80;2.75;;;22.30;79.40;;;;;;4994750;28;20394;-78
2022/09/02 06:22:12;;;;;;;4.95;2.60;;;22.20;79.40;;;;;;4994976;28;20280;-78
2022/09/02 06:24:40;;;;;;;4.68;2.72;;;22.20;79.40;;;;;;4994717;28;20053;-79
2022/09/02 06:27:10;;;;;;;6.75;3.25;;;22.20;79.40;;;;;;5011268;28;20034;-79
2022/09/02 06:29:39;;;;;;;4.78;2.65;;;22.30;79.40;;;;;;4994204;28;20478;-79
2022/09/02 06:32:07;;;;;;;4.50;2.60;;;22.20;79.40;;;;;;4994211;28;20562;-80
2022/09/02 06:34:34;;;;;;;6.10;2.78;;;22.30;79.50;;;;;;4994387;28;20029;-79
2022/09/02 06:37:00;;;;;;;6.45;3.08;;;22.20;79.40;;;;;;4994781;28;20105;-79
2022/09/02 06:39:27;;;;;;;5.82;3.00;;;22.20;79.40;;;;;;5010614;28;20038;-79
2022/09/02 06:41:55;;;;;;;4.53;2.87;;;22.20;79.40;;;;;;4994555;28;20065;-78
2022/09/02 06:44:23;;;;;;;5.40;3.05;;;22.30;79.40;;;;;;4994330;28;20284;-79
2022/09/02 06:46:54;;;;;;;6.72;3.47;;;22.20;79.30;;;;;;5010849;28;20032;-79
2022/09/02 06:49:20;;;;;;;7.28;3.47;;;22.20;79.30;;;;;;4994215;28;20088;-80
2022/09/02 06:51:49;;;;;;;4.43;2.80;;;22.30;79.30;;;;;;4994748;28;20061;-79
2022/09/02 06:54:18;;;;;;;6.03;3.30;;;22.30;79.20;;;;;;5010923;28;20037;-79
2022/09/02 06:56:48;;;;;;;5.70;3.28;;;22.30;79.30;;;;;;4994578;28;20033;-80
2022/09/02 06:59:17;;;;;;;4.28;2.70;;;22.30;79.20;;;;;;5010477;28;20038;-79
2022/09/02 07:01:50;;;;;;;4.65;2.63;;;22.30;79.20;;;;;;4979196;28;20034;-79
2022/09/02 07:07:07;;;;;;;6.43;3.35;;;22.30;79.30;;;;;;4994212;28;20033;-79
2022/09/02 07:09:38;;;;;;;5.57;2.90;;;22.30;79.20;;;;;;4978414;28;20449;-80
2022/09/02 07:12:09;;;;;;;7.15;3.40;;;22.30;79.20;;;;;;4978757;28;20030;-81
2022/09/02 07:14:42;;;;;;;6.18;3.50;;;22.30;79.00;;;;;;5010622;28;20084;-81
2022/09/02 07:17:16;;;;;;;5.63;3.38;;;22.40;79.10;;;;;;5010798;28;20491;-81
2022/09/02 07:19:43;;;;;;;7.40;3.88;;;22.30;79.10;;;;;;5010203;28;20030;-78
2022/09/02 07:22:09;;;;;;;6.72;3.17;;;22.30;79.10;;;;;;5011737;28;20096;-82
2022/09/02 07:24:40;;;;;;;5.35;3.38;;;22.40;79.60;;;;;;5010335;28;20030;-83
2022/09/02 07:27:07;;;;;;;6.57;3.40;;;22.40;79.00;;;;;;4978507;28;20029;-82
2022/09/02 07:29:34;;;;;;;6.22;3.67;;;22.40;79.00;;;;;;4977832;28;20030;-81
2022/09/02 07:32:01;;;;;;;6.93;3.40;;;22.40;79.10;;;;;;4978068;28;20101;-81
2022/09/02 07:34:28;;;;;;;6.72;3.58;;;22.40;79.10;;;;;;4994281;28;20034;-82
2022/09/02 07:36:54;;;;;;;5.95;3.33;;;22.40;79.00;;;;;;4978256;28;20041;-83
2022/09/02 07:39:22;;;;;;;6.30;3.33;;;22.40;79.00;;;;;;5010033;28;20117;-84
2022/09/02 07:41:52;;;;;;;5.32;3.40;;;22.40;79.00;;;;;;5010781;28;20426;-83
2022/09/02 07:44:21;;;;;;;6.72;3.80;;;22.40;79.10;;;;;;5013958;28;20061;-83
2022/09/02 07:46:49;;;;;;;5.57;3.38;;;22.40;79.20;;;;;;5014103;28;20371;-85
2022/09/02 07:49:19;;;;;;;5.78;3.90;;;22.40;79.10;;;;;;4997723;28;20022;-84
2022/09/02 07:51:51;;;;;;;6.35;3.42;;;22.40;79.30;;;;;;5013900;28;20486;-83
2022/09/02 07:54:22;;;;;;;7.15;3.70;;;22.40;79.30;;;;;;4997647;28;20033;-84
2022/09/02 07:56:49;;;;;;;5.80;3.38;;;22.50;79.10;;;;;;4981494;28;20557;-84
2022/09/02 07:59:17;;;;;;;5.93;3.33;;;22.40;79.30;;;;;;5013711;28;20033;-87
2022/09/02 08:01:46;;;;;;;5.57;3.17;;;22.50;79.30;;;;;;4981607;28;20033;-86
2022/09/02 08:04:12;;;;;;;6.05;3.55;;;22.50;79.10;;;;;;4997248;28;20402;-85
2022/09/02 08:06:39;;;;;;;5.60;3.40;;;22.50;79.20;;;;;;4997568;28;20026;-83
2022/09/02 08:09:10;;;;;;;6.32;3.30;;;22.50;79.00;;;;;;4997332;28;20057;-86
2022/09/02 08:11:43;;;;;;;5.93;3.47;;;22.50;79.30;;;;;;5014812;28;20490;-85
2022/09/02 08:14:16;;;;;;;6.65;3.33;;;22.50;79.10;;;;;;4997181;28;20032;-85
2022/09/02 08:16:44;;;;;;;6.35;3.33;;;22.50;79.00;;;;;;4997426;28;20083;-85
2022/09/02 08:19:10;;;;;;;6.45;3.60;;;22.50;79.20;;;;;;4997065;28;20551;-85
2022/09/02 08:21:36;;;;;;;6.55;3.70;;;22.50;79.30;;;;;;4981187;28;20100;-85
2022/09/02 08:24:02;;;;;;;5.95;3.60;;;22.50;79.20;;;;;;4997439;28;20494;-86
2022/09/02 08:26:28;;;;;;;4.72;3.28;;;22.50;79.50;;;;;;4996825;28;20030;-85
2022/09/02 08:28:55;;;;;;;5.75;3.50;;;22.50;79.30;;;;;;5013160;28;20052;-85
2022/09/02 08:31:21;;;;;;;5.72;3.42;;;22.50;79.40;;;;;;4997264;28;20548;-86
2022/09/02 08:33:47;;;;;;;6.53;3.80;;;22.50;79.50;;;;;;4980800;28;20037;-85
2022/09/02 08:36:15;;;;;;;5.22;3.20;;;22.50;79.30;;;;;;5013002;28;20041;-86
2022/09/02 08:38:41;;;;;;;6.00;3.50;;;22.60;79.50;;;;;;5014053;28;20046;-86
2022/09/02 08:41:23;;;;;;;5.90;3.53;;;22.60;79.40;;;;;;4996582;28;20025;-86
2022/09/02 08:43:52;;;;;;;6.55;3.63;;;22.60;79.80;;;;;;4980652;28;20030;-86
2022/09/02 08:46:24;;;;;;;5.45;3.17;;;22.60;79.70;;;;;;4980452;28;20029;-86
2022/09/02 08:48:58;;;;;;;5.85;3.53;;;22.60;79.90;;;;;;5013843;28;20026;-86
2022/09/02 08:51:35;;;;;;;6.32;3.70;;;22.60;79.90;;;;;;5012850;28;20022;-86
2022/09/02 08:54:11;;;;;;;6.03;3.38;;;22.60;80.10;;;;;;5011867;28;20029;-85
2022/09/02 08:56:37;;;;;;;6.63;3.70;;;22.60;79.90;;;;;;5013953;28;20052;-86
2022/09/02 08:59:03;;;;;;;7.07;3.80;;;22.60;80.10;;;;;;4996506;28;20490;-85
2022/09/02 09:01:54;;;;;;;6.55;3.45;;;22.60;80.20;;;;;;4996253;28;20116;-87
2022/09/02 09:04:32;;;;;;;5.18;3.58;;;22.60;80.20;;;;;;4996530;28;20040;-87
2022/09/02 09:07:08;;;;;;;6.05;3.47;;;22.60;80.20;;;;;;4980427;28;20026;-87
2022/09/02 09:10:12;;;;;;;6.18;3.70;;;22.60;80.30;;;;;;4996255;28;20389;-82
2022/09/02 09:12:56;;;;;;;6.43;3.55;;;22.60;80.00;;;;;;5012452;28;20497;-81
2022/09/02 09:15:50;;;;;;;5.93;3.30;;;22.60;80.30;;;;;;5013484;28;20025;-83
2022/09/02 09:18:19;;;;;;;5.65;3.03;;;22.60;80.10;;;;;;5013512;28;20101;-81
2022/09/02 09:20:45;;;;;;;5.50;3.45;;;22.60;80.30;;;;;;4995572;28;20033;-82
2022/09/02 09:23:29;;;;;;;7.93;3.70;;;22.60;80.40;;;;;;4995889;28;20033;-83
2022/09/02 09:26:07;;;;;;;6.25;3.67;;;22.60;80.50;;;;;;4995644;28;20030;-82
2022/09/02 09:28:39;;;;;;;6.00;3.58;;;22.60;80.30;;;;;;4963347;28;20080;-82
2022/09/02 09:31:09;;;;;;;6.00;3.80;;;22.60;80.10;;;;;;5013165;28;20447;-82
2022/09/02 09:33:34;;;;;;;6.60;3.63;;;22.60;80.60;;;;;;4995593;28;20038;-82
2022/09/02 09:36:04;;;;;;;4.90;3.30;;;22.60;80.60;;;;;;4995820;28;20040;-82
2022/09/02 09:38:35;;;;;;;5.13;3.40;;;22.60;80.70;;;;;;5012999;28;20057;-82
2022/09/02 09:41:21;;;;;;;5.75;3.72;;;22.60;80.80;;;;;;5013019;28;20069;-82
2022/09/02 09:43:47;;;;;;;6.45;3.78;;;22.60;80.80;;;;;;5011630;28;20389;-82
2022/09/02 09:46:23;;;;;;;5.43;3.08;;;22.70;80.80;;;;;;5011370;28;20140;-82
2022/09/02 09:48:50;;;;;;;6.15;3.00;;;22.70;80.80;;;;;;5012577;28;20483;-82
2022/09/02 09:51:16;;;;;;;6.32;3.60;;;22.70;80.90;;;;;;5013076;28;20394;-81
2022/09/02 09:53:43;;;;;;;6.70;3.70;;;22.70;80.90;;;;;;5012785;28;20112;-82
2022/09/02 09:56:15;;;;;;;5.53;3.40;;;22.60;80.90;;;;;;5012808;28;20026;-81
2022/09/02 09:58:41;;;;;;;5.50;3.30;;;22.70;80.90;;;;;;5012373;28;20042;-81
2022/09/02 10:01:25;;;;;;;5.10;2.97;;;22.70;80.90;;;;;;5012725;28;20445;-79
2022/09/02 10:03:57;;;;;;;5.90;3.67;;;22.70;80.80;;;;;;4995212;28;20581;-84
2022/09/02 10:06:35;;;;;;;6.20;3.58;;;22.70;81.00;;;;;;5012449;28;20021;-83
2022/09/02 10:09:24;;;;;;;5.55;3.25;;;22.70;80.90;;;;;;5012472;28;20473;-82
2022/09/02 10:12:11;;;;;;;5.03;3.05;;;22.70;81.00;;;;;;5012523;28;20091;-83
2022/09/02 10:14:36;;;;;;;6.20;3.28;;;22.60;80.90;;;;;;5011472;28;20493;-82
2022/09/02 10:17:26;;;;;;;5.65;3.17;;;22.60;80.70;;;;;;5012298;28;20030;-83
2022/09/02 10:20:07;;;;;;;6.90;3.13;;;22.60;80.70;;;;;;5011110;28;20030;-82
2022/09/02 10:22:42;;;;;;;4.90;3.00;;;22.60;80.50;;;;;;5012532;28;20060;-82
2022/09/02 10:25:30;;;;;;;5.35;3.15;;;22.60;80.30;;;;;;5012385;28;20034;-82
2022/09/02 10:28:08;;;;;;;5.63;3.33;;;22.60;80.50;;;;;;4969385;28;20096;-83
2022/09/02 10:30:42;;;;;;;6.03;3.40;;;22.60;80.60;;;;;;5012096;28;20054;-81
2022/09/02 10:33:23;;;;;;;5.18;3.20;;;22.60;80.60;;;;;;5012418;28;20030;-82
2022/09/02 10:36:03;;;;;;;6.43;3.65;;;22.60;80.60;;;;;;5012020;28;20034;-82
2022/09/02 10:38:36;;;;;;;7.00;3.53;;;22.60;80.70;;;;;;5010757;28;20123;-81
2022/09/02 10:41:30;;;;;;;4.85;3.05;;;22.60;80.70;;;;;;5012258;28;20533;-82
2022/09/02 10:43:59;;;;;;;5.63;3.58;;;22.50;80.50;;;;;;4995044;28;20117;-83
2022/09/02 10:46:29;;;;;;;5.05;2.97;;;22.50;80.80;;;;;;5010480;28;20124;-82
2022/09/02 10:49:04;;;;;;;6.13;3.20;;;22.50;80.70;;;;;;5011680;28;20486;-82
2022/09/02 10:51:58;;;;;;;4.30;2.70;;;22.50;80.70;;;;;;5012030;28;20034;-83
2022/09/02 10:54:33;;;;;;;5.70;3.25;;;22.50;80.80;;;;;;5010984;28;20072;-83
2022/09/02 10:57:25;;;;;;;5.43;3.25;;;22.50;80.80;;;;;;4994250;28;20478;-83
2022/09/02 11:00:09;;;;;;;4.88;3.10;;;22.50;80.80;;;;;;5011376;28;20096;-83
2022/09/02 11:03:02;;;;;;;5.18;3.10;;;22.50;80.70;;;;;;4994531;28;20038;-83
2022/09/02 11:05:51;;;;;;;5.88;3.10;;;22.50;80.80;;;;;;5010616;28;20022;-83
2022/09/02 11:08:30;;;;;;;5.45;2.88;;;22.50;80.60;;;;;;5011023;28;20072;-83
2022/09/02 11:11:03;;;;;;;5.60;3.23;;;22.50;80.70;;;;;;5010890;28;20022;-83
2022/09/02 11:13:53;;;;;;;5.70;3.35;;;22.50;80.80;;;;;;5011833;28;20261;-83
2022/09/02 11:16:54;;;;;;;4.85;2.78;;;22.50;80.70;;;;;;5012876;28;20474;-83
2022/09/02 11:19:34;;;;;;;4.70;2.92;;;22.50;80.60;;;;;;4959764;28;20116;-83
2022/09/02 11:22:18;;;;;;;4.57;2.90;;;22.50;80.60;;;;;;5014641;28;20033;-83
2022/09/02 11:25:05;;;;;;;4.78;2.75;;;22.50;80.60;;;;;;5015491;28;20100;-83
2022/09/02 11:27:52;;;;;;;3.50;2.60;;;22.50;80.60;;;;;;5014358;28;20501;-83
2022/09/02 11:30:22;;;;;;;4.38;2.80;;;22.50;80.60;;;;;;5015211;28;20029;-83
2022/09/02 11:33:09;;;;;;;5.15;2.92;;;22.50;80.60;;;;;;5015365;28;20541;-83
2022/09/02 11:35:38;;;;;;;4.47;2.67;;;22.40;80.60;;;;;;4997700;28;20041;-83
2022/09/02 11:38:08;;;;;;;4.70;2.97;;;22.40;80.70;;;;;;4997767;28;20061;-83
2022/09/02 11:40:58;;;;;;;4.75;2.90;;;22.40;80.70;;;;;;5013850;28;20160;-82
2022/09/02 11:43:46;;;;;;;5.18;3.35;;;22.40;80.80;;;;;;4997848;28;20038;-83
2022/09/02 11:46:36;;;;;;;8.32;3.08;;;22.50;81.00;;;;;;4997703;28;20034;-83
2022/09/02 11:49:23;;;;;;;15.35;3.90;;;22.50;81.40;;;;;;5014899;28;20025;-80
2022/09/02 11:51:51;;;;;;;12.82;2.97;;;22.60;82.40;;;;;;5014339;28;20398;-83
2022/09/02 11:54:20;;;;;;;8.23;3.58;;;22.60;82.60;;;;;;5012983;28;20031;-83
2022/09/02 11:56:50;;;;;;;22.20;4.05;;;22.70;83.90;;;;;;5013261;28;20033;-84
2022/09/02 11:59:21;;;;;;;11.55;3.38;;;22.80;82.80;;;;;;5011806;28;20033;-83
2022/09/02 12:01:54;;;;;;;13.18;3.47;;;22.80;82.40;;;;;;4993301;28;20029;-84
2022/09/02 12:04:25;;;;;;;12.80;3.85;;;22.80;82.90;;;;;;4992292;28;20038;-84
2022/09/02 12:07:04;;;;;;;12.48;3.47;;;22.80;82.50;;;;;;4993986;28;20073;-84
2022/09/02 12:09:53;;;;;;;12.82;3.85;;;22.80;82.90;;;;;;5010377;28;20026;-84
2022/09/02 12:12:37;;;;;;;10.20;3.70;;;22.80;83.20;;;;;;5025226;28;20068;-84
2022/09/02 12:15:07;;;;;;;16.05;3.38;;;22.70;82.80;;;;;;5009402;28;20589;-84
2022/09/02 12:17:36;;;;;;;12.55;3.90;;;22.80;84.10;;;;;;4992371;28;20080;-83
2022/09/02 12:20:06;;;;;;;17.65;4.68;;;22.80;84.50;;;;;;5011119;28;20461;-84
2022/09/02 12:22:37;;;;;;;;;;;22.80;85.20;;;;;;5010863;28;20040;-81
2022/09/02 12:25:23;;;;;;;21.63;4.50;;;22.80;84.90;;;;;;5007882;28;19963;-83
2022/09/02 12:27:49;;;;;;;18.75;3.97;;;22.80;84.60;;;;;;4984051;28;20034;-84
2022/09/02 12:30:54;;;;;;;17.92;4.03;;;22.80;84.70;;;;;;4958583;28;20156;-83
2022/09/02 12:33:31;;;;;;;14.13;3.53;;;22.80;85.10;;;;;;4979620;28;20442;-83
2022/09/02 12:35:58;;;;;;;14.30;3.90;;;22.80;84.70;;;;;;5024607;28;20030;-84
2022/09/02 12:38:28;;;;;;;10.88;3.50;;;22.80;84.90;;;;;;5007050;28;20030;-84
2022/09/02 12:41:11;;;;;;;15.45;3.70;;;22.80;84.90;;;;;;4975720;28;20038;-83
2022/09/02 12:43:53;;;;;;;13.32;3.60;;;22.80;84.80;;;;;;4962393;28;20041;-83
2022/09/02 12:46:41;;;;;;;8.98;3.30;;;22.80;85.20;;;;;;4975866;28;20069;-83
2022/09/02 12:49:34;;;;;;;14.35;3.60;;;22.80;85.10;;;;;;5007925;28;20441;-84
2022/09/02 12:52:08;;;;;;;14.23;3.58;;;22.80;84.30;;;;;;4991786;28;20401;-84
2022/09/02 12:54:48;;;;;;;13.88;3.50;;;22.80;85.10;;;;;;5007802;28;20038;-84
2022/09/02 12:57:18;;;;;;;13.07;3.30;;;22.80;85.40;;;;;;4976097;28;20062;-83
2022/09/02 12:59:46;;;;;;;10.15;3.05;;;22.80;85.10;;;;;;4988012;28;20173;-83
2022/09/02 13:02:49;;;;;;;14.27;3.38;;;22.80;85.10;;;;;;4959111;28;20069;-84
2022/09/02 13:05:37;;;;;;;8.73;3.25;;;22.80;85.20;;;;;;4991239;28;20057;-83
2022/09/02 13:08:32;;;;;;;10.43;3.30;;;22.80;85.10;;;;;;4993253;28;20038;-82
2022/09/02 13:11:20;;;;;;;10.43;3.30;;;22.70;85.00;;;;;;5005269;28;20065;-84
2022/09/02 13:14:24;;;;;;;13.10;3.05;;;22.80;85.00;;;;;;4992675;28;20034;-84